sensor_id;sensor_type;location;lat;lon;timestamp;P1;durP1;ratioP1;P2;durP2;ratioP2
33573;SDS011;20085;50.832;4.392;2022-08-19T00:01:40;24.15;;;19.55;;
33573;SDS011;20085;50.832;4.392;2022-08-19T00:04:09;25.73;;;19.50;;
33573;SDS011;20085;50.832;4.392;2022-08-19T00:06:37;28.20;;;20.55;;
33573;SDS011;20085;50.832;4.392;2022-08-19T00:09:05;27.48;;;21.95;;
33573;SDS011;20085;50.832;4.392;2022-08-19T00:11:33;30.50;;;23.80;;
33573;SDS011;20085;50.832;4.392;2022-08-19T00:14:02;32.38;;;23.60;;
33573;SDS011;20085;50.832;4.392;2022-08-19T00:16:29;35.67;;;25.35;;
33573;SDS011;20085;50.832;4.392;2022-08-19T00:18:55;35.45;;;26.65;;
33573;SDS011;20085;50.832;4.392;2022-08-19T00:21:20;38.13;;;27.60;;
33573;SDS011;20085;50.832;4.392;2022-08-19T00:23:47;40.63;;;29.02;;
33573;SDS011;20085;50.832;4.392;2022-08-19T00:26:12;42.85;;;30.20;;
33573;SDS011;20085;50.832;4.392;2022-08-19T00:28:38;47.92;;;32.42;;
33573;SDS011;20085;50.832;4.392;2022-08-19T00:31:04;51.25;;;34.85;;
33573;SDS011;20085;50.832;4.392;2022-08-19T00:33:32;52.17;;;36.53;;
33573;SDS011;20085;50.832;4.392;2022-08-19T00:36:03;53.05;;;35.25;;
33573;SDS011;20085;50.832;4.392;2022-08-19T00:38:31;54.65;;;36.67;;
33573;SDS011;20085;50.832;4.392;2022-08-19T00:40:57;52.22;;;37.10;;
33573;SDS011;20085;50.832;4.392;2022-08-19T00:43:24;59.95;;;38.47;;
33573;SDS011;20085;50.832;4.392;2022-08-19T00:45:51;58.95;;;39.05;;
33573;SDS011;20085;50.832;4.392;2022-08-19T00:48:17;58.72;;;40.42;;
33573;SDS011;20085;50.832;4.392;2022-08-19T00:50:44;61.33;;;39.80;;
33573;SDS011;20085;50.832;4.392;2022-08-19T00:53:13;59.42;;;39.45;;
33573;SDS011;20085;50.832;4.392;2022-08-19T00:55:42;60.42;;;41.22;;
33573;SDS011;20085;50.832;4.392;2022-08-19T00:58:12;64.18;;;40.58;;
33573;SDS011;20085;50.832;4.392;2022-08-19T01:00:40;66.72;;;43.15;;
33573;SDS011;20085;50.832;4.392;2022-08-19T01:03:07;60.88;;;40.70;;
33573;SDS011;20085;50.832;4.392;2022-08-19T01:05:35;57.45;;;40.38;;
33573;SDS011;20085;50.832;4.392;2022-08-19T01:08:03;55.88;;;39.65;;
33573;SDS011;20085;50.832;4.392;2022-08-19T01:10:31;62.90;;;41.05;;
33573;SDS011;20085;50.832;4.392;2022-08-19T01:13:08;54.13;;;37.88;;
33573;SDS011;20085;50.832;4.392;2022-08-19T01:15:38;57.47;;;38.45;;
33573;SDS011;20085;50.832;4.392;2022-08-19T01:18:09;54.97;;;38.90;;
33573;SDS011;20085;50.832;4.392;2022-08-19T01:20:37;54.55;;;37.03;;
33573;SDS011;20085;50.832;4.392;2022-08-19T01:23:03;49.28;;;34.00;;
33573;SDS011;20085;50.832;4.392;2022-08-19T01:25:31;49.67;;;33.45;;
33573;SDS011;20085;50.832;4.392;2022-08-19T01:28:00;48.92;;;32.28;;
33573;SDS011;20085;50.832;4.392;2022-08-19T01:30:31;45.90;;;32.50;;
33573;SDS011;20085;50.832;4.392;2022-08-19T01:32:58;45.35;;;31.98;;
33573;SDS011;20085;50.832;4.392;2022-08-19T01:35:26;43.78;;;31.88;;
33573;SDS011;20085;50.832;4.392;2022-08-19T01:37:58;42.88;;;30.58;;
33573;SDS011;20085;50.832;4.392;2022-08-19T01:40:27;38.67;;;29.90;;
33573;SDS011;20085;50.832;4.392;2022-08-19T01:42:58;42.28;;;29.02;;
33573;SDS011;20085;50.832;4.392;2022-08-19T01:45:25;38.25;;;28.60;;
33573;SDS011;20085;50.832;4.392;2022-08-19T01:47:53;37.20;;;26.85;;
33573;SDS011;20085;50.832;4.392;2022-08-19T01:50:19;36.97;;;27.00;;
33573;SDS011;20085;50.832;4.392;2022-08-19T01:52:45;34.10;;;24.75;;
33573;SDS011;20085;50.832;4.392;2022-08-19T01:55:13;33.78;;;24.20;;
33573;SDS011;20085;50.832;4.392;2022-08-19T01:57:41;35.90;;;25.27;;
33573;SDS011;20085;50.832;4.392;2022-08-19T02:00:13;35.08;;;24.35;;
33573;SDS011;20085;50.832;4.392;2022-08-19T02:02:41;31.83;;;25.38;;
33573;SDS011;20085;50.832;4.392;2022-08-19T02:05:07;35.92;;;25.67;;
33573;SDS011;20085;50.832;4.392;2022-08-19T02:07:34;33.47;;;25.27;;
33573;SDS011;20085;50.832;4.392;2022-08-19T02:10:04;43.03;;;24.48;;
33573;SDS011;20085;50.832;4.392;2022-08-19T02:12:32;33.03;;;23.83;;
33573;SDS011;20085;50.832;4.392;2022-08-19T02:14:58;28.08;;;19.33;;
33573;SDS011;20085;50.832;4.392;2022-08-19T02:17:24;25.05;;;18.40;;
33573;SDS011;20085;50.832;4.392;2022-08-19T02:19:50;26.42;;;18.55;;
33573;SDS011;20085;50.832;4.392;2022-08-19T02:22:15;31.48;;;21.15;;
33573;SDS011;20085;50.832;4.392;2022-08-19T02:24:41;25.77;;;20.27;;
33573;SDS011;20085;50.832;4.392;2022-08-19T02:27:07;34.55;;;23.98;;
33573;SDS011;20085;50.832;4.392;2022-08-19T02:29:32;31.95;;;23.45;;
33573;SDS011;20085;50.832;4.392;2022-08-19T02:31:58;36.55;;;25.20;;
33573;SDS011;20085;50.832;4.392;2022-08-19T02:34:24;34.25;;;25.25;;
33573;SDS011;20085;50.832;4.392;2022-08-19T02:36:50;34.78;;;24.60;;
33573;SDS011;20085;50.832;4.392;2022-08-19T02:39:16;33.85;;;23.02;;
33573;SDS011;20085;50.832;4.392;2022-08-19T02:41:42;30.02;;;22.30;;
33573;SDS011;20085;50.832;4.392;2022-08-19T02:44:08;30.25;;;21.13;;
33573;SDS011;20085;50.832;4.392;2022-08-19T02:46:33;29.27;;;21.45;;
33573;SDS011;20085;50.832;4.392;2022-08-19T02:49:02;31.52;;;21.60;;
33573;SDS011;20085;50.832;4.392;2022-08-19T02:51:34;34.20;;;22.13;;
33573;SDS011;20085;50.832;4.392;2022-08-19T02:54:02;32.42;;;22.55;;
33573;SDS011;20085;50.832;4.392;2022-08-19T02:56:29;31.58;;;21.45;;
33573;SDS011;20085;50.832;4.392;2022-08-19T02:58:56;30.13;;;21.98;;
33573;SDS011;20085;50.832;4.392;2022-08-19T03:01:31;33.08;;;21.92;;
33573;SDS011;20085;50.832;4.392;2022-08-19T03:03:59;29.77;;;19.67;;
33573;SDS011;20085;50.832;4.392;2022-08-19T03:06:27;27.35;;;17.40;;
33573;SDS011;20085;50.832;4.392;2022-08-19T03:08:53;29.92;;;16.42;;
33573;SDS011;20085;50.832;4.392;2022-08-19T03:11:22;29.33;;;16.52;;
33573;SDS011;20085;50.832;4.392;2022-08-19T03:13:49;26.60;;;16.58;;
33573;SDS011;20085;50.832;4.392;2022-08-19T03:16:16;26.90;;;19.30;;
33573;SDS011;20085;50.832;4.392;2022-08-19T03:18:43;30.58;;;20.63;;
33573;SDS011;20085;50.832;4.392;2022-08-19T03:21:14;34.08;;;21.92;;
33573;SDS011;20085;50.832;4.392;2022-08-19T03:23:41;33.58;;;21.50;;
33573;SDS011;20085;50.832;4.392;2022-08-19T03:26:07;33.00;;;22.08;;
33573;SDS011;20085;50.832;4.392;2022-08-19T03:28:32;32.15;;;21.05;;
33573;SDS011;20085;50.832;4.392;2022-08-19T03:31:03;33.53;;;21.42;;
33573;SDS011;20085;50.832;4.392;2022-08-19T03:33:34;32.03;;;21.15;;
33573;SDS011;20085;50.832;4.392;2022-08-19T03:38:28;31.20;;;19.70;;
33573;SDS011;20085;50.832;4.392;2022-08-19T03:40:54;37.78;;;19.92;;
33573;SDS011;20085;50.832;4.392;2022-08-19T03:43:19;29.95;;;18.38;;
33573;SDS011;20085;50.832;4.392;2022-08-19T03:45:46;27.90;;;18.67;;
33573;SDS011;20085;50.832;4.392;2022-08-19T03:48:13;29.52;;;18.23;;
33573;SDS011;20085;50.832;4.392;2022-08-19T03:50:41;25.80;;;19.10;;
33573;SDS011;20085;50.832;4.392;2022-08-19T03:53:07;32.70;;;20.35;;
33573;SDS011;20085;50.832;4.392;2022-08-19T03:55:34;34.35;;;22.65;;
33573;SDS011;20085;50.832;4.392;2022-08-19T03:58:04;33.13;;;21.77;;
33573;SDS011;20085;50.832;4.392;2022-08-19T04:00:29;32.30;;;21.95;;
33573;SDS011;20085;50.832;4.392;2022-08-19T04:02:55;28.55;;;20.52;;
33573;SDS011;20085;50.832;4.392;2022-08-19T04:05:21;32.13;;;20.75;;
33573;SDS011;20085;50.832;4.392;2022-08-19T04:07:46;30.38;;;20.58;;
33573;SDS011;20085;50.832;4.392;2022-08-19T04:10:12;31.02;;;20.42;;
33573;SDS011;20085;50.832;4.392;2022-08-19T04:12:37;33.20;;;20.48;;
33573;SDS011;20085;50.832;4.392;2022-08-19T04:15:04;33.50;;;19.38;;
33573;SDS011;20085;50.832;4.392;2022-08-19T04:17:31;33.40;;;20.77;;
33573;SDS011;20085;50.832;4.392;2022-08-19T04:19:57;29.90;;;19.85;;
33573;SDS011;20085;50.832;4.392;2022-08-19T04:22:22;33.38;;;20.92;;
33573;SDS011;20085;50.832;4.392;2022-08-19T04:24:48;32.85;;;19.77;;
33573;SDS011;20085;50.832;4.392;2022-08-19T04:27:13;30.60;;;19.60;;
33573;SDS011;20085;50.832;4.392;2022-08-19T04:29:40;31.20;;;19.35;;
33573;SDS011;20085;50.832;4.392;2022-08-19T04:32:06;29.83;;;17.63;;
33573;SDS011;20085;50.832;4.392;2022-08-19T04:34:31;33.70;;;18.55;;
33573;SDS011;20085;50.832;4.392;2022-08-19T04:36:57;31.25;;;18.75;;
33573;SDS011;20085;50.832;4.392;2022-08-19T04:39:28;35.45;;;18.35;;
33573;SDS011;20085;50.832;4.392;2022-08-19T04:42:15;26.13;;;17.17;;
33573;SDS011;20085;50.832;4.392;2022-08-19T04:45:00;26.75;;;16.67;;
33573;SDS011;20085;50.832;4.392;2022-08-19T04:47:27;24.73;;;16.70;;
33573;SDS011;20085;50.832;4.392;2022-08-19T04:49:53;26.75;;;17.02;;
33573;SDS011;20085;50.832;4.392;2022-08-19T04:52:18;28.58;;;16.63;;
33573;SDS011;20085;50.832;4.392;2022-08-19T04:54:44;24.95;;;15.55;;
33573;SDS011;20085;50.832;4.392;2022-08-19T04:57:10;28.80;;;15.68;;
33573;SDS011;20085;50.832;4.392;2022-08-19T04:59:36;26.00;;;14.90;;
33573;SDS011;20085;50.832;4.392;2022-08-19T05:02:03;25.45;;;13.90;;
33573;SDS011;20085;50.832;4.392;2022-08-19T05:04:29;27.73;;;13.70;;
33573;SDS011;20085;50.832;4.392;2022-08-19T05:06:56;27.23;;;14.20;;
33573;SDS011;20085;50.832;4.392;2022-08-19T05:09:22;23.77;;;13.02;;
33573;SDS011;20085;50.832;4.392;2022-08-19T05:11:48;27.25;;;14.63;;
33573;SDS011;20085;50.832;4.392;2022-08-19T05:14:14;24.70;;;14.43;;
33573;SDS011;20085;50.832;4.392;2022-08-19T05:16:40;21.98;;;13.85;;
33573;SDS011;20085;50.832;4.392;2022-08-19T05:19:06;22.73;;;14.52;;
33573;SDS011;20085;50.832;4.392;2022-08-19T05:21:50;26.83;;;15.65;;
33573;SDS011;20085;50.832;4.392;2022-08-19T05:24:34;25.52;;;15.25;;
33573;SDS011;20085;50.832;4.392;2022-08-19T05:27:02;29.48;;;16.33;;
33573;SDS011;20085;50.832;4.392;2022-08-19T05:29:30;26.38;;;16.17;;
33573;SDS011;20085;50.832;4.392;2022-08-19T05:31:58;28.83;;;17.92;;
33573;SDS011;20085;50.832;4.392;2022-08-19T05:34:24;28.38;;;17.40;;
33573;SDS011;20085;50.832;4.392;2022-08-19T05:36:56;29.02;;;18.35;;
33573;SDS011;20085;50.832;4.392;2022-08-19T05:39:24;27.55;;;18.10;;
33573;SDS011;20085;50.832;4.392;2022-08-19T05:41:53;32.00;;;18.02;;
33573;SDS011;20085;50.832;4.392;2022-08-19T05:44:22;29.02;;;17.25;;
33573;SDS011;20085;50.832;4.392;2022-08-19T05:46:49;25.98;;;16.88;;
33573;SDS011;20085;50.832;4.392;2022-08-19T05:49:18;24.50;;;15.95;;
33573;SDS011;20085;50.832;4.392;2022-08-19T05:51:46;24.08;;;15.35;;
33573;SDS011;20085;50.832;4.392;2022-08-19T05:54:11;24.80;;;15.95;;
33573;SDS011;20085;50.832;4.392;2022-08-19T05:56:38;27.58;;;15.50;;
33573;SDS011;20085;50.832;4.392;2022-08-19T05:59:06;26.92;;;13.40;;
33573;SDS011;20085;50.832;4.392;2022-08-19T06:01:36;21.58;;;13.40;;
33573;SDS011;20085;50.832;4.392;2022-08-19T06:04:03;22.80;;;12.00;;
33573;SDS011;20085;50.832;4.392;2022-08-19T06:06:29;22.40;;;12.15;;
33573;SDS011;20085;50.832;4.392;2022-08-19T06:08:55;22.52;;;12.77;;
33573;SDS011;20085;50.832;4.392;2022-08-19T06:11:22;20.67;;;11.32;;
33573;SDS011;20085;50.832;4.392;2022-08-19T06:14:00;20.20;;;11.80;;
33573;SDS011;20085;50.832;4.392;2022-08-19T06:16:28;21.40;;;11.20;;
33573;SDS011;20085;50.832;4.392;2022-08-19T06:18:56;18.52;;;10.40;;
33573;SDS011;20085;50.832;4.392;2022-08-19T06:21:26;20.33;;;10.30;;
33573;SDS011;20085;50.832;4.392;2022-08-19T06:23:54;24.85;;;11.05;;
33573;SDS011;20085;50.832;4.392;2022-08-19T06:26:21;23.90;;;10.93;;
33573;SDS011;20085;50.832;4.392;2022-08-19T06:28:48;19.42;;;10.15;;
33573;SDS011;20085;50.832;4.392;2022-08-19T06:31:14;22.05;;;10.35;;
33573;SDS011;20085;50.832;4.392;2022-08-19T06:33:43;20.40;;;9.45;;
33573;SDS011;20085;50.832;4.392;2022-08-19T06:36:26;17.08;;;9.57;;
33573;SDS011;20085;50.832;4.392;2022-08-19T06:39:06;21.15;;;9.13;;
33573;SDS011;20085;50.832;4.392;2022-08-19T06:41:35;23.42;;;9.35;;
33573;SDS011;20085;50.832;4.392;2022-08-19T06:44:03;17.48;;;8.10;;
33573;SDS011;20085;50.832;4.392;2022-08-19T06:46:29;16.27;;;8.20;;
33573;SDS011;20085;50.832;4.392;2022-08-19T06:48:55;18.50;;;9.10;;
33573;SDS011;20085;50.832;4.392;2022-08-19T06:51:22;15.80;;;8.38;;
33573;SDS011;20085;50.832;4.392;2022-08-19T06:53:49;21.02;;;8.57;;
33573;SDS011;20085;50.832;4.392;2022-08-19T06:56:18;17.40;;;8.52;;
33573;SDS011;20085;50.832;4.392;2022-08-19T06:58:46;22.10;;;8.25;;
33573;SDS011;20085;50.832;4.392;2022-08-19T07:01:15;22.63;;;9.65;;
33573;SDS011;20085;50.832;4.392;2022-08-19T07:03:41;22.50;;;8.88;;
33573;SDS011;20085;50.832;4.392;2022-08-19T07:06:08;21.98;;;9.68;;
33573;SDS011;20085;50.832;4.392;2022-08-19T07:08:37;19.95;;;8.55;;
33573;SDS011;20085;50.832;4.392;2022-08-19T07:11:09;20.20;;;9.10;;
33573;SDS011;20085;50.832;4.392;2022-08-19T07:13:37;17.20;;;8.95;;
33573;SDS011;20085;50.832;4.392;2022-08-19T07:16:07;24.35;;;8.82;;
33573;SDS011;20085;50.832;4.392;2022-08-19T07:18:36;22.48;;;9.75;;
33573;SDS011;20085;50.832;4.392;2022-08-19T07:21:13;20.45;;;9.35;;
33573;SDS011;20085;50.832;4.392;2022-08-19T07:23:41;15.82;;;8.30;;
33573;SDS011;20085;50.832;4.392;2022-08-19T07:26:08;19.15;;;8.43;;
33573;SDS011;20085;50.832;4.392;2022-08-19T07:28:45;19.60;;;9.32;;
33573;SDS011;20085;50.832;4.392;2022-08-19T07:31:13;22.83;;;9.23;;
33573;SDS011;20085;50.832;4.392;2022-08-19T07:33:43;14.70;;;8.38;;
33573;SDS011;20085;50.832;4.392;2022-08-19T07:36:11;18.85;;;8.88;;
33573;SDS011;20085;50.832;4.392;2022-08-19T07:38:38;17.75;;;8.70;;
33573;SDS011;20085;50.832;4.392;2022-08-19T07:41:12;19.98;;;7.40;;
33573;SDS011;20085;50.832;4.392;2022-08-19T07:43:41;18.65;;;9.63;;
33573;SDS011;20085;50.832;4.392;2022-08-19T07:46:08;14.40;;;7.30;;
33573;SDS011;20085;50.832;4.392;2022-08-19T07:48:35;15.23;;;7.30;;
33573;SDS011;20085;50.832;4.392;2022-08-19T07:51:01;12.15;;;7.28;;
33573;SDS011;20085;50.832;4.392;2022-08-19T07:53:31;12.55;;;7.10;;
33573;SDS011;20085;50.832;4.392;2022-08-19T07:55:59;14.07;;;7.25;;
33573;SDS011;20085;50.832;4.392;2022-08-19T07:58:29;14.80;;;7.70;;
33573;SDS011;20085;50.832;4.392;2022-08-19T08:00:56;15.60;;;8.10;;
33573;SDS011;20085;50.832;4.392;2022-08-19T08:03:22;15.00;;;7.88;;
33573;SDS011;20085;50.832;4.392;2022-08-19T08:06:18;16.52;;;8.43;;
33573;SDS011;20085;50.832;4.392;2022-08-19T08:09:03;15.48;;;8.05;;
33573;SDS011;20085;50.832;4.392;2022-08-19T08:11:36;15.40;;;7.80;;
33573;SDS011;20085;50.832;4.392;2022-08-19T08:14:07;18.55;;;8.50;;
33573;SDS011;20085;50.832;4.392;2022-08-19T08:16:37;13.43;;;7.32;;
33573;SDS011;20085;50.832;4.392;2022-08-19T08:19:06;16.08;;;6.22;;
33573;SDS011;20085;50.832;4.392;2022-08-19T08:21:33;13.57;;;6.65;;
33573;SDS011;20085;50.832;4.392;2022-08-19T08:23:59;16.80;;;7.10;;
33573;SDS011;20085;50.832;4.392;2022-08-19T08:26:25;12.68;;;5.95;;
33573;SDS011;20085;50.832;4.392;2022-08-19T08:28:51;17.05;;;7.15;;
33573;SDS011;20085;50.832;4.392;2022-08-19T08:31:18;23.13;;;7.20;;
33573;SDS011;20085;50.832;4.392;2022-08-19T08:33:44;13.77;;;6.57;;
33573;SDS011;20085;50.832;4.392;2022-08-19T08:36:11;16.85;;;7.15;;
33573;SDS011;20085;50.832;4.392;2022-08-19T08:38:41;14.80;;;7.53;;
33573;SDS011;20085;50.832;4.392;2022-08-19T08:41:14;15.35;;;6.55;;
33573;SDS011;20085;50.832;4.392;2022-08-19T08:44:12;13.55;;;6.25;;
33573;SDS011;20085;50.832;4.392;2022-08-19T08:46:44;14.65;;;6.47;;
33573;SDS011;20085;50.832;4.392;2022-08-19T08:49:29;13.85;;;5.75;;
33573;SDS011;20085;50.832;4.392;2022-08-19T08:52:04;14.15;;;6.78;;
33573;SDS011;20085;50.832;4.392;2022-08-19T08:54:37;14.35;;;6.53;;
33573;SDS011;20085;50.832;4.392;2022-08-19T08:57:07;11.25;;;6.22;;
33573;SDS011;20085;50.832;4.392;2022-08-19T08:59:40;12.52;;;6.93;;
33573;SDS011;20085;50.832;4.392;2022-08-19T09:02:08;12.02;;;6.90;;
33573;SDS011;20085;50.832;4.392;2022-08-19T09:04:35;10.93;;;6.30;;
33573;SDS011;20085;50.832;4.392;2022-08-19T09:07:24;15.43;;;7.00;;
33573;SDS011;20085;50.832;4.392;2022-08-19T09:10:43;11.63;;;6.22;;
33573;SDS011;20085;50.832;4.392;2022-08-19T09:15:24;14.77;;;6.18;;
33573;SDS011;20085;50.832;4.392;2022-08-19T09:18:00;12.40;;;6.40;;
33573;SDS011;20085;50.832;4.392;2022-08-19T09:20:27;12.88;;;5.70;;
33573;SDS011;20085;50.832;4.392;2022-08-19T09:22:53;11.35;;;5.60;;
33573;SDS011;20085;50.832;4.392;2022-08-19T09:25:19;11.20;;;5.53;;
33573;SDS011;20085;50.832;4.392;2022-08-19T09:27:49;11.90;;;6.07;;
33573;SDS011;20085;50.832;4.392;2022-08-19T09:30:23;11.23;;;5.53;;
33573;SDS011;20085;50.832;4.392;2022-08-19T09:32:51;14.30;;;5.75;;
33573;SDS011;20085;50.832;4.392;2022-08-19T09:35:17;11.15;;;5.97;;
33573;SDS011;20085;50.832;4.392;2022-08-19T09:37:43;13.32;;;5.32;;
33573;SDS011;20085;50.832;4.392;2022-08-19T09:40:10;13.10;;;5.97;;
33573;SDS011;20085;50.832;4.392;2022-08-19T09:42:36;12.95;;;5.90;;
33573;SDS011;20085;50.832;4.392;2022-08-19T09:45:02;12.15;;;6.40;;
33573;SDS011;20085;50.832;4.392;2022-08-19T09:47:29;16.50;;;6.35;;
33573;SDS011;20085;50.832;4.392;2022-08-19T09:49:55;17.58;;;6.65;;
33573;SDS011;20085;50.832;4.392;2022-08-19T09:52:20;15.23;;;6.30;;
33573;SDS011;20085;50.832;4.392;2022-08-19T09:54:46;11.38;;;6.45;;
33573;SDS011;20085;50.832;4.392;2022-08-19T09:57:12;12.07;;;5.85;;
33573;SDS011;20085;50.832;4.392;2022-08-19T09:59:38;13.68;;;5.38;;
33573;SDS011;20085;50.832;4.392;2022-08-19T10:02:05;12.98;;;5.30;;
33573;SDS011;20085;50.832;4.392;2022-08-19T10:04:30;10.55;;;5.50;;
33573;SDS011;20085;50.832;4.392;2022-08-19T10:07:15;14.27;;;5.10;;
33573;SDS011;20085;50.832;4.392;2022-08-19T10:09:41;9.77;;;4.82;;
33573;SDS011;20085;50.832;4.392;2022-08-19T10:12:06;10.15;;;5.38;;
33573;SDS011;20085;50.832;4.392;2022-08-19T10:14:33;10.15;;;4.47;;
33573;SDS011;20085;50.832;4.392;2022-08-19T10:16:59;9.70;;;5.00;;
33573;SDS011;20085;50.832;4.392;2022-08-19T10:19:27;7.88;;;4.82;;
33573;SDS011;20085;50.832;4.392;2022-08-19T10:21:57;10.43;;;5.57;;
33573;SDS011;20085;50.832;4.392;2022-08-19T10:24:23;12.15;;;4.72;;
33573;SDS011;20085;50.832;4.392;2022-08-19T10:26:50;9.32;;;5.32;;
33573;SDS011;20085;50.832;4.392;2022-08-19T10:29:16;11.32;;;6.20;;
33573;SDS011;20085;50.832;4.392;2022-08-19T10:31:42;10.40;;;6.40;;
33573;SDS011;20085;50.832;4.392;2022-08-19T10:34:08;13.40;;;6.60;;
33573;SDS011;20085;50.832;4.392;2022-08-19T10:36:35;11.63;;;6.25;;
33573;SDS011;20085;50.832;4.392;2022-08-19T10:39:03;10.65;;;7.00;;
33573;SDS011;20085;50.832;4.392;2022-08-19T10:41:34;12.07;;;6.78;;
33573;SDS011;20085;50.832;4.392;2022-08-19T10:44:04;9.95;;;6.53;;
33573;SDS011;20085;50.832;4.392;2022-08-19T10:46:33;10.77;;;6.75;;
33573;SDS011;20085;50.832;4.392;2022-08-19T10:49:03;12.18;;;7.00;;
33573;SDS011;20085;50.832;4.392;2022-08-19T10:51:30;13.07;;;8.05;;
33573;SDS011;20085;50.832;4.392;2022-08-19T10:54:17;12.48;;;7.63;;
33573;SDS011;20085;50.832;4.392;2022-08-19T10:56:43;16.33;;;8.23;;
33573;SDS011;20085;50.832;4.392;2022-08-19T10:59:25;14.02;;;8.32;;
33573;SDS011;20085;50.832;4.392;2022-08-19T11:01:54;16.52;;;8.27;;
33573;SDS011;20085;50.832;4.392;2022-08-19T11:04:27;11.50;;;8.10;;
33573;SDS011;20085;50.832;4.392;2022-08-19T11:06:53;13.50;;;8.13;;
33573;SDS011;20085;50.832;4.392;2022-08-19T11:09:20;14.10;;;8.05;;
33573;SDS011;20085;50.832;4.392;2022-08-19T11:11:49;16.17;;;7.95;;
33573;SDS011;20085;50.832;4.392;2022-08-19T11:14:18;11.50;;;7.43;;
33573;SDS011;20085;50.832;4.392;2022-08-19T11:16:45;11.45;;;6.47;;
33573;SDS011;20085;50.832;4.392;2022-08-19T11:19:12;11.65;;;6.78;;
33573;SDS011;20085;50.832;4.392;2022-08-19T11:21:40;12.82;;;6.72;;
33573;SDS011;20085;50.832;4.392;2022-08-19T11:24:09;19.42;;;8.40;;
33573;SDS011;20085;50.832;4.392;2022-08-19T11:26:41;17.35;;;9.07;;
33573;SDS011;20085;50.832;4.392;2022-08-19T11:29:08;14.15;;;9.05;;
33573;SDS011;20085;50.832;4.392;2022-08-19T11:31:39;19.00;;;9.98;;
33573;SDS011;20085;50.832;4.392;2022-08-19T11:34:08;17.15;;;10.13;;
33573;SDS011;20085;50.832;4.392;2022-08-19T11:36:37;23.50;;;10.82;;
33573;SDS011;20085;50.832;4.392;2022-08-19T11:39:05;18.10;;;9.25;;
33573;SDS011;20085;50.832;4.392;2022-08-19T11:41:32;17.48;;;10.25;;
33573;SDS011;20085;50.832;4.392;2022-08-19T11:43:59;18.20;;;9.30;;
33573;SDS011;20085;50.832;4.392;2022-08-19T11:46:25;13.18;;;9.23;;
33573;SDS011;20085;50.832;4.392;2022-08-19T11:48:54;15.13;;;9.10;;
33573;SDS011;20085;50.832;4.392;2022-08-19T11:51:21;17.70;;;9.15;;
33573;SDS011;20085;50.832;4.392;2022-08-19T11:53:49;13.98;;;8.57;;
33573;SDS011;20085;50.832;4.392;2022-08-19T11:56:16;12.98;;;8.20;;
33573;SDS011;20085;50.832;4.392;2022-08-19T11:58:42;13.32;;;7.80;;
33573;SDS011;20085;50.832;4.392;2022-08-19T12:01:09;12.23;;;7.43;;
33573;SDS011;20085;50.832;4.392;2022-08-19T12:03:40;14.77;;;7.00;;
33573;SDS011;20085;50.832;4.392;2022-08-19T12:06:09;12.07;;;7.20;;
33573;SDS011;20085;50.832;4.392;2022-08-19T12:08:38;10.43;;;6.40;;
33573;SDS011;20085;50.832;4.392;2022-08-19T12:11:04;12.13;;;7.20;;
33573;SDS011;20085;50.832;4.392;2022-08-19T12:13:32;11.15;;;6.43;;
33573;SDS011;20085;50.832;4.392;2022-08-19T12:15:59;10.88;;;6.38;;
33573;SDS011;20085;50.832;4.392;2022-08-19T12:18:25;11.52;;;5.82;;
33573;SDS011;20085;50.832;4.392;2022-08-19T12:20:51;10.45;;;5.55;;
33573;SDS011;20085;50.832;4.392;2022-08-19T12:23:19;11.82;;;5.65;;
33573;SDS011;20085;50.832;4.392;2022-08-19T12:25:46;11.52;;;5.90;;
33573;SDS011;20085;50.832;4.392;2022-08-19T12:28:20;8.15;;;5.45;;
33573;SDS011;20085;50.832;4.392;2022-08-19T12:30:48;9.93;;;4.90;;
33573;SDS011;20085;50.832;4.392;2022-08-19T12:33:20;13.40;;;4.70;;
33573;SDS011;20085;50.832;4.392;2022-08-19T12:35:49;9.38;;;4.80;;
33573;SDS011;20085;50.832;4.392;2022-08-19T12:38:15;9.77;;;4.38;;
33573;SDS011;20085;50.832;4.392;2022-08-19T12:40:41;8.73;;;4.43;;
33573;SDS011;20085;50.832;4.392;2022-08-19T12:43:10;6.25;;;3.17;;
33573;SDS011;20085;50.832;4.392;2022-08-19T12:45:36;15.20;;;4.25;;
33573;SDS011;20085;50.832;4.392;2022-08-19T12:48:02;10.32;;;3.75;;
33573;SDS011;20085;50.832;4.392;2022-08-19T12:50:29;9.75;;;3.35;;
33573;SDS011;20085;50.832;4.392;2022-08-19T12:52:55;13.38;;;3.60;;
33573;SDS011;20085;50.832;4.392;2022-08-19T12:55:22;6.53;;;2.97;;
33573;SDS011;20085;50.832;4.392;2022-08-19T12:57:47;7.75;;;3.70;;
33573;SDS011;20085;50.832;4.392;2022-08-19T13:00:15;10.52;;;3.40;;
33573;SDS011;20085;50.832;4.392;2022-08-19T13:02:44;7.97;;;3.55;;
33573;SDS011;20085;50.832;4.392;2022-08-19T13:05:15;6.43;;;3.10;;
33573;SDS011;20085;50.832;4.392;2022-08-19T13:07:45;7.85;;;3.25;;
33573;SDS011;20085;50.832;4.392;2022-08-19T13:10:13;6.78;;;2.90;;
33573;SDS011;20085;50.832;4.392;2022-08-19T13:12:41;6.18;;;3.30;;
33573;SDS011;20085;50.832;4.392;2022-08-19T13:15:08;7.00;;;3.60;;
33573;SDS011;20085;50.832;4.392;2022-08-19T13:17:34;12.48;;;3.05;;
33573;SDS011;20085;50.832;4.392;2022-08-19T13:20:01;7.28;;;2.85;;
33573;SDS011;20085;50.832;4.392;2022-08-19T13:22:27;6.60;;;2.40;;
33573;SDS011;20085;50.832;4.392;2022-08-19T13:24:53;5.68;;;2.40;;
33573;SDS011;20085;50.832;4.392;2022-08-19T13:27:19;6.10;;;2.22;;
33573;SDS011;20085;50.832;4.392;2022-08-19T13:29:44;6.30;;;2.40;;
33573;SDS011;20085;50.832;4.392;2022-08-19T13:32:39;5.38;;;2.47;;
33573;SDS011;20085;50.832;4.392;2022-08-19T13:35:23;6.53;;;2.60;;
33573;SDS011;20085;50.832;4.392;2022-08-19T13:37:49;5.80;;;2.45;;
33573;SDS011;20085;50.832;4.392;2022-08-19T13:40:22;4.90;;;2.35;;
33573;SDS011;20085;50.832;4.392;2022-08-19T13:42:51;7.05;;;2.90;;
33573;SDS011;20085;50.832;4.392;2022-08-19T13:45:19;5.07;;;2.45;;
33573;SDS011;20085;50.832;4.392;2022-08-19T13:47:47;5.72;;;2.20;;
33573;SDS011;20085;50.832;4.392;2022-08-19T13:50:19;8.10;;;2.90;;
33573;SDS011;20085;50.832;4.392;2022-08-19T13:52:47;9.38;;;2.70;;
33573;SDS011;20085;50.832;4.392;2022-08-19T13:55:13;8.38;;;2.72;;
33573;SDS011;20085;50.832;4.392;2022-08-19T13:57:40;7.07;;;2.85;;
33573;SDS011;20085;50.832;4.392;2022-08-19T14:00:11;4.85;;;2.45;;
33573;SDS011;20085;50.832;4.392;2022-08-19T14:02:42;7.57;;;2.58;;
33573;SDS011;20085;50.832;4.392;2022-08-19T14:05:10;5.38;;;2.40;;
33573;SDS011;20085;50.832;4.392;2022-08-19T14:07:38;7.10;;;2.40;;
33573;SDS011;20085;50.832;4.392;2022-08-19T14:10:04;7.82;;;2.20;;
33573;SDS011;20085;50.832;4.392;2022-08-19T14:12:32;10.02;;;2.47;;
33573;SDS011;20085;50.832;4.392;2022-08-19T14:14:58;6.35;;;2.38;;
33573;SDS011;20085;50.832;4.392;2022-08-19T14:17:24;8.88;;;2.28;;
33573;SDS011;20085;50.832;4.392;2022-08-19T14:19:56;10.73;;;2.20;;
33573;SDS011;20085;50.832;4.392;2022-08-19T14:22:22;7.85;;;2.55;;
33573;SDS011;20085;50.832;4.392;2022-08-19T14:24:47;6.35;;;2.45;;
33573;SDS011;20085;50.832;4.392;2022-08-19T14:27:15;19.20;;;2.90;;
33573;SDS011;20085;50.832;4.392;2022-08-19T14:29:40;5.43;;;2.60;;
33573;SDS011;20085;50.832;4.392;2022-08-19T14:32:06;7.07;;;2.33;;
33573;SDS011;20085;50.832;4.392;2022-08-19T14:34:31;6.05;;;2.35;;
33573;SDS011;20085;50.832;4.392;2022-08-19T14:36:58;4.65;;;2.08;;
33573;SDS011;20085;50.832;4.392;2022-08-19T14:39:24;5.03;;;2.00;;
33573;SDS011;20085;50.832;4.392;2022-08-19T14:41:50;4.25;;;1.77;;
33573;SDS011;20085;50.832;4.392;2022-08-19T14:44:16;4.45;;;1.77;;